createdAt,value
2023-01-02T00:02:49.103Z,-10926.75
2023-01-02T00:05:55.310Z,-10922.84
2023-01-02T00:09:03.077Z,-10919.19
2023-01-02T00:12:09.541Z,-10921.84
2023-01-02T00:15:16.121Z,-10922.13
2023-01-02T00:18:22.534Z,-10924.78
2023-01-02T00:21:28.739Z,-10919.47
2023-01-02T00:24:36.608Z,-10923.97
2023-01-02T00:27:43.215Z,-10915.00
2023-01-02T00:30:49.825Z,-10923.81
2023-01-02T00:33:56.272Z,-10923.97
2023-01-02T00:37:02.600Z,-10927.31
2023-01-02T00:40:14.116Z,-10918.91
2023-01-02T00:43:20.393Z,-10902.81
2023-01-02T00:46:26.779Z,-10900.56
2023-01-02T00:49:33.127Z,-10903.50
2023-01-02T00:52:39.464Z,-10901.84
2023-01-02T00:55:47.471Z,-10914.56
2023-01-02T00:58:53.531Z,-10908.69
2023-01-02T01:02:00.107Z,-10912.47
2023-01-02T01:05:07.537Z,-10922.84
2023-01-02T01:08:13.826Z,-10925.91
2023-01-02T01:11:21.419Z,-10909.13
2023-01-02T01:14:28.051Z,-10917.38
2023-01-02T01:17:34.701Z,-10927.31
2023-01-02T01:20:40.937Z,-10926.47
2023-01-02T01:23:51.615Z,-10919.75
2023-01-02T01:26:59.115Z,-10915.41
2023-01-02T01:30:05.582Z,-10915.13
2023-01-02T01:33:11.756Z,-10910.09
2023-01-02T01:36:20.832Z,-10918.50
2023-01-02T01:39:27.132Z,-10902.66
2023-01-02T01:42:35.911Z,-10904.91
2023-01-02T01:45:45.003Z,-10898.75
2023-01-02T01:48:58.975Z,-10892.88
2023-01-02T01:52:08.222Z,-10889.50
2023-01-02T01:55:20.071Z,-10907.44
2023-01-02T01:58:31.761Z,-10907.16
2023-01-02T02:01:38.776Z,-10910.66
2023-01-02T02:04:46.631Z,-10914.16
2023-01-02T02:08:04.099Z,-10910.22
2023-01-02T02:11:11.402Z,-10918.34
2023-01-02T02:14:19.479Z,-10924.50
2023-01-02T02:17:36.407Z,-10918.91
2023-01-02T02:20:51.416Z,-10908.00
2023-01-02T02:24:30.725Z,-10901.13
2023-01-02T02:28:03.170Z,-10900.72
2023-01-02T02:31:15.974Z,-10902.41
2023-01-02T02:34:28.433Z,-10904.78
2023-01-02T02:37:41.625Z,-10901.69
2023-01-02T02:40:57.846Z,-10911.50
2023-01-02T02:44:13.733Z,-10908.84
2023-01-02T02:47:29.668Z,-10908.28
2023-01-02T02:50:40.551Z,-10901.41
2023-01-02T02:53:52.379Z,-10889.22
2023-01-02T02:57:00.961Z,-10882.66
2023-01-02T03:00:10.228Z,-10883.34
2023-01-02T03:03:20.355Z,-10890.91
2023-01-02T03:06:45.924Z,-10890.06
2023-01-02T03:10:00.765Z,-10901.56
2023-01-02T03:13:15.407Z,-10900.44
2023-01-02T03:16:26.823Z,-10908.00
2023-01-02T03:19:41.714Z,-10908.84
2023-01-02T03:22:53.271Z,-10906.16
2023-01-02T03:26:00.120Z,-10902.13
2023-01-02T03:29:11.356Z,-10896.66
2023-01-02T03:32:24.704Z,-10888.25
2023-01-02T03:35:37.585Z,-10895.25
2023-01-02T03:38:50.059Z,-10899.03
2023-01-02T03:42:00.270Z,-10900.72
2023-01-02T03:45:10.920Z,-10895.53
2023-01-02T03:48:25.108Z,-10881.13
2023-01-02T03:51:33.620Z,-10880.00
2023-01-02T03:54:39.887Z,-10880.28
2023-01-02T03:57:57.491Z,-10878.88
2023-01-02T04:01:08.009Z,-10878.03
2023-01-02T04:04:19.763Z,-10880.97
2023-01-02T04:07:31.814Z,-10898.75
2023-01-02T04:10:39.956Z,-10894.69
2023-01-02T04:13:52.327Z,-10904.06
2023-01-02T04:17:00.956Z,-10906.03
2023-01-02T04:20:12.146Z,-10906.03
2023-01-02T04:23:23.306Z,-10901.97
2023-01-02T04:26:35.133Z,-10898.63
2023-01-02T04:29:42.173Z,-10888.69
2023-01-02T04:32:49.389Z,-10881.97
2023-01-02T04:35:55.869Z,-10878.75
2023-01-02T04:39:03.591Z,-10884.75
2023-01-02T04:42:09.726Z,-10882.25
2023-01-02T04:45:16.252Z,-10871.75
2023-01-02T04:48:22.671Z,-10862.38
2023-01-02T04:51:29.012Z,-10871.47
2023-01-02T04:54:36.674Z,-10868.09
2023-01-02T04:57:43.229Z,-10869.78
2023-01-02T05:00:49.215Z,-10874.97
2023-01-02T05:03:55.444Z,-10878.03
2023-01-02T05:07:01.601Z,-10890.63
2023-01-02T05:10:10.423Z,-10885.19
2023-01-02T05:13:16.840Z,-10887.84
2023-01-02T05:16:22.909Z,-10886.44
2023-01-02T05:19:29.056Z,-10877.75
2023-01-02T05:22:53.183Z,-10871.88
2023-01-02T05:26:00.932Z,-10878.19
2023-01-02T05:29:07.140Z,-10877.63
2023-01-02T05:32:13.471Z,-10874.53
2023-01-02T05:35:20.178Z,-10868.25
2023-01-02T05:38:26.582Z,-10863.34
2023-01-02T05:41:34.232Z,-10860.13
2023-01-02T05:44:40.846Z,-10864.34
2023-01-02T05:47:47.084Z,-10876.22
2023-01-02T05:50:53.864Z,-10866.56
2023-01-02T05:54:00.211Z,-10876.91
2023-01-02T05:57:07.980Z,-10878.59
2023-01-02T06:00:15.576Z,-10884.34
2023-01-02T06:03:22.087Z,-10893.28
2023-01-02T06:06:36.575Z,-10890.06
2023-01-02T06:09:42.952Z,-10893.84
2023-01-02T06:12:50.646Z,-10894.84
2023-01-02T06:15:56.995Z,-10891.75
2023-01-02T06:19:03.265Z,-10897.06
2023-01-02T06:22:09.828Z,-10896.22
2023-01-02T06:25:16.698Z,-10900.44
2023-01-02T06:28:24.450Z,-10902.94
2023-01-02T06:31:33.614Z,-10903.38
2023-01-02T06:34:40.233Z,-10895.97
2023-01-02T06:37:46.724Z,-10891.91
2023-01-02T06:40:57.349Z,-10904.78
2023-01-02T06:44:05.165Z,-10907.44
2023-01-02T06:47:11.643Z,-10913.47
2023-01-02T06:50:19.764Z,-10899.31
2023-01-02T06:53:27.770Z,-10901.84
2023-01-02T06:56:34.340Z,-10905.47
2023-01-02T06:59:42.012Z,-10916.25
2023-01-02T07:02:48.386Z,-10925.78
2023-01-02T07:05:55.037Z,-10931.66
2023-01-02T07:09:01.463Z,-10936.00
2023-01-02T07:12:07.897Z,-10942.72
2023-01-02T07:15:15.427Z,-10941.59
2023-01-02T07:18:21.928Z,-10939.09
2023-01-02T07:21:28.134Z,-10944.97
2023-01-02T07:24:34.623Z,-10951.97
2023-01-02T07:27:40.844Z,-10951.25
2023-01-02T07:30:48.259Z,-10946.09
2023-01-02T07:33:54.401Z,-10944.41
2023-01-02T07:37:00.684Z,-10958.00
2023-01-02T07:40:07.790Z,-10954.34
2023-01-02T07:43:13.764Z,-10957.00
2023-01-02T07:46:22.003Z,-10967.09
2023-01-02T07:49:28.159Z,-10981.69
2023-01-02T07:52:34.572Z,-10992.91
2023-01-02T07:55:40.772Z,-10998.50
2023-01-02T07:58:47.303Z,-10996.81
2023-01-02T08:01:55.335Z,-10987.28
2023-01-02T08:05:01.822Z,-10998.22
2023-01-02T08:08:09.176Z,-11003.69
2023-01-02T08:11:17.755Z,-11011.97
2023-01-02T08:14:24.108Z,-11019.41
2023-01-02T08:17:31.983Z,-11017.44
2023-01-02T08:20:38.175Z,-11024.44
2023-01-02T08:23:44.544Z,-11030.75
2023-01-02T08:26:50.898Z,-11033.28
2023-01-02T08:29:57.002Z,-11031.59
2023-01-02T08:33:04.643Z,-11038.59
2023-01-02T08:36:11.604Z,-11042.25
2023-01-02T08:39:18.039Z,-11049.00
2023-01-02T08:42:24.096Z,-11058.53
2023-01-02T08:45:30.753Z,-11063.03
2023-01-02T08:48:38.407Z,-11058.81
2023-01-02T08:51:45.041Z,-11063.72
2023-01-02T08:54:51.245Z,-11074.53
2023-01-02T08:57:57.592Z,-11078.03
2023-01-02T09:01:03.955Z,-11074.97
2023-01-02T09:04:13.320Z,-11086.88
2023-01-02T09:07:19.852Z,-11086.59
2023-01-02T09:10:26.439Z,-11085.19
2023-01-02T09:13:32.991Z,-11091.38
2023-01-02T09:16:39.416Z,-11091.94
2023-01-02T09:19:47.274Z,-11107.53
2023-01-02T09:22:53.840Z,-11114.13
2023-01-02T09:26:00.858Z,-11116.38
2023-01-02T09:29:07.055Z,-11110.19
2023-01-02T09:32:13.633Z,-11118.06
2023-01-02T09:35:21.353Z,-11125.94
2023-01-02T09:38:27.747Z,-11137.03
2023-01-02T09:41:37.323Z,-11134.91
2023-01-02T09:44:47.672Z,-11133.50
2023-01-02T09:47:57.222Z,-11131.81
2023-01-02T09:51:07.887Z,-11141.09
2023-01-02T09:54:21.167Z,-11148.13
2023-01-02T09:57:41.533Z,-11150.09
2023-01-02T10:00:51.446Z,-11150.50
2023-01-02T10:04:07.567Z,-11158.25
2023-01-02T10:07:24.651Z,-11167.38
2023-01-02T10:10:38.594Z,-11166.13
2023-01-02T10:14:17.928Z,-11168.22
2023-01-02T10:17:18.262Z,-11164.56
2023-01-02T10:20:28.815Z,-11169.63
2023-01-02T10:23:40.904Z,-11183.81
2023-01-02T10:26:53.468Z,-11186.91
2023-01-02T10:30:08.299Z,-11193.94
2023-01-02T10:33:20.774Z,-11202.38
2023-01-02T10:36:28.959Z,-11205.75
2023-01-02T10:39:36.769Z,-11211.38
2023-01-02T10:42:43.422Z,-11217.00
2023-01-02T10:45:49.863Z,-11215.31
2023-01-02T10:48:56.520Z,-11214.47
2023-01-02T10:52:07.726Z,-11211.09
2023-01-02T10:55:15.371Z,-11225.44
2023-01-02T10:58:24.304Z,-11232.34
2023-01-02T11:01:31.330Z,-11246.56
2023-01-02T11:04:44.325Z,-11240.91
2023-01-02T11:07:53.349Z,-11243.19
2023-01-02T11:11:01.855Z,-11251.63
2023-01-02T11:14:11.616Z,-11253.88
2023-01-02T11:17:20.083Z,-11263.72
2023-01-02T11:20:29.362Z,-11267.09
2023-01-02T11:23:39.252Z,-11267.66
2023-01-02T11:26:48.934Z,-11260.34
2023-01-02T11:29:55.619Z,-11264.00
2023-01-02T11:33:09.864Z,-11267.94
2023-01-02T11:36:18.677Z,-11261.47
2023-01-02T11:39:27.141Z,-11269.91
2023-01-02T11:42:58.696Z,-11265.84
2023-01-02T11:46:10.726Z,-11273.84
2023-01-02T11:49:20.970Z,-11280.03
2023-01-02T11:52:35.393Z,-11294.97
2023-01-02T11:55:47.652Z,-11286.50
2023-01-02T11:59:02.519Z,-11296.22
2023-01-02T12:02:16.905Z,-11303.97
2023-01-02T12:05:34.836Z,-11311.28
2023-01-02T12:09:02.024Z,-11309.03
2023-01-02T12:12:24.909Z,-11312.41
2023-01-02T12:16:10.758Z,-11319.87
2023-01-02T12:19:54.534Z,-11321.84
2023-01-02T12:23:25.897Z,-11328.34
2023-01-02T12:26:37.656Z,-11327.63
2023-01-02T12:29:57.586Z,-11334.81
2023-01-02T12:33:42.940Z,-11331.00
2023-01-02T12:36:57.091Z,-11340.31
2023-01-02T12:40:35.145Z,-11341.56
2023-01-02T12:43:58.417Z,-11341.72
2023-01-02T12:47:24.902Z,-11333.69
2023-01-02T12:50:51.270Z,-11333.84
2023-01-02T12:54:18.781Z,-11322.84
2023-01-02T12:57:34.504Z,-11329.59
2023-01-02T13:00:56.740Z,-11339.31
2023-01-02T13:04:15.670Z,-11338.34
2023-01-02T13:07:32.771Z,-11339.47
2023-01-02T13:10:40.280Z,-11358.91
2023-01-02T13:13:46.986Z,-11355.50
2023-01-02T13:17:04.682Z,-11350.16
2023-01-02T13:20:21.595Z,-11342.00
2023-01-02T13:23:34.601Z,-11353.13
2023-01-02T13:26:41.503Z,-11344.25
2023-01-02T13:29:47.814Z,-11338.91
2023-01-02T13:32:54.438Z,-11345.81
2023-01-02T13:36:04.095Z,-11346.78
2023-01-02T13:39:20.725Z,-11347.06
2023-01-02T13:42:46.633Z,-11340.03
2023-01-02T13:45:55.381Z,-11319.59
2023-01-02T13:49:03.586Z,-11303.00
2023-01-02T13:52:17.128Z,-11277.50
2023-01-02T13:55:32.473Z,-11280.59
2023-01-02T13:58:45.046Z,-11257.81
2023-01-02T14:02:17.285Z,-11238.09
2023-01-02T14:06:01.465Z,-11204.63
2023-01-02T14:09:11.038Z,-11196.19
2023-01-02T14:12:18.685Z,-11205.75
2023-01-02T14:15:27.072Z,-11202.94
2023-01-02T14:18:33.229Z,-11187.06
2023-01-02T14:21:44.119Z,-11185.66
2023-01-02T14:24:52.766Z,-11182.41
2023-01-02T14:28:03.383Z,-11174.25
2023-01-02T14:31:19.988Z,-11168.66
2023-01-02T14:34:27.271Z,-11166.97
2023-01-02T14:37:42.457Z,-11169.63
2023-01-02T14:40:49.339Z,-11162.75
2023-01-02T14:43:57.203Z,-11157.25
2023-01-02T14:47:04.385Z,-11146.00
2023-01-02T14:50:16.109Z,-11140.53
2023-01-02T14:53:26.476Z,-11142.22
2023-01-02T14:56:36.820Z,-11135.34
2023-01-02T14:59:47.502Z,-11133.50
2023-01-02T15:02:59.868Z,-11130.56
2023-01-02T15:06:13.663Z,-11123.53
2023-01-02T15:09:28.199Z,-11125.66
2023-01-02T15:13:01.053Z,-11122.00
2023-01-02T15:16:11.614Z,-11120.31
2023-01-02T15:19:22.661Z,-11116.81
2023-01-02T15:22:31.612Z,-11117.50
2023-01-02T15:25:41.116Z,-11118.75
2023-01-02T15:28:56.549Z,-11117.09
2023-01-02T15:32:06.099Z,-11113.56
2023-01-02T15:35:14.750Z,-11111.19
2023-01-02T15:38:22.769Z,-11098.41
2023-01-02T15:41:29.363Z,-11099.25
2023-01-02T15:44:54.305Z,-11088.56
2023-01-02T15:48:03.077Z,-11082.41
2023-01-02T15:51:16.596Z,-11083.22
2023-01-02T15:54:22.833Z,-11081.28
2023-01-02T15:57:32.035Z,-11082.94
2023-01-02T16:00:40.908Z,-11084.06
2023-01-02T16:04:02.126Z,-11077.75
2023-01-02T16:07:17.380Z,-11067.94
2023-01-02T16:10:27.037Z,-11064.84
2023-01-02T16:13:54.141Z,-11068.50
2023-01-02T16:17:04.678Z,-11068.34
2023-01-02T16:20:20.190Z,-11073.97
2023-01-02T16:23:26.971Z,-11064.16
2023-01-02T16:26:41.266Z,-11064.44
2023-01-02T16:29:47.689Z,-11065.28
2023-01-02T16:32:54.348Z,-11056.16
2023-01-02T16:36:10.570Z,-11057.28
2023-01-02T16:39:42.164Z,-11054.75
2023-01-02T16:42:48.406Z,-11051.66
2023-01-02T16:45:54.910Z,-11047.59
2023-01-02T16:49:05.184Z,-11050.13
2023-01-02T16:52:13.516Z,-11046.59
2023-01-02T16:55:22.625Z,-11040.56
2023-01-02T16:58:30.082Z,-11038.59
2023-01-02T17:01:36.907Z,-11036.78
2023-01-02T17:04:43.555Z,-11037.22
2023-01-02T17:07:50.947Z,-11036.09
2023-01-02T17:10:58.845Z,-11029.34
2023-01-02T17:14:05.184Z,-11025.44
2023-01-02T17:17:11.415Z,-11032.84
2023-01-02T17:20:18.216Z,-11026.81
2023-01-02T17:23:26.050Z,-11025.28
2023-01-02T17:26:32.072Z,-11025.00
2023-01-02T17:29:38.149Z,-11025.44
2023-01-02T17:32:45.484Z,-11019.41
2023-01-02T17:35:51.899Z,-11018.69
2023-01-02T17:38:59.400Z,-11020.66
2023-01-02T17:42:06.737Z,-11018.41
2023-01-02T17:45:15.376Z,-11016.44
2023-01-02T17:48:24.744Z,-11019.53
2023-01-02T17:51:31.864Z,-11018.97
2023-01-02T17:54:39.438Z,-11018.41
2023-01-02T17:57:45.718Z,-11008.31
2023-01-02T18:00:53.105Z,-11011.97
2023-01-02T18:03:59.409Z,-11008.59
2023-01-02T18:07:06.071Z,-11010.28
2023-01-02T18:10:19.454Z,-11009.44
2023-01-02T18:13:28.368Z,-11000.47
2023-01-02T18:16:40.372Z,-10993.44
2023-01-02T18:19:46.812Z,-10997.94
2023-01-02T18:22:53.648Z,-10996.69
2023-01-02T18:26:02.499Z,-10997.94
2023-01-02T18:29:22.492Z,-11004.81
2023-01-02T18:32:33.827Z,-11001.31
2023-01-02T18:35:57.483Z,-11002.44
2023-01-02T18:39:14.801Z,-10999.06
2023-01-02T18:42:26.657Z,-10999.34
2023-01-02T18:45:33.349Z,-10995.97
2023-01-02T18:48:40.735Z,-10992.91
2023-01-02T18:51:47.227Z,-10991.06
2023-01-02T18:54:59.825Z,-10979.44
2023-01-02T18:58:33.532Z,-10977.91
2023-01-02T19:01:44.908Z,-10981.25
2023-01-02T19:04:53.041Z,-10983.91
2023-01-02T19:08:14.642Z,-10993.72
2023-01-02T19:11:41.467Z,-10990.66
2023-01-02T19:14:51.887Z,-10990.94
2023-01-02T19:17:59.141Z,-10977.19
2023-01-02T19:21:17.142Z,-10964.59
2023-01-02T19:24:25.466Z,-10964.59
2023-01-02T19:27:37.512Z,-10958.97
2023-01-02T19:30:45.953Z,-10966.69
2023-01-02T19:33:57.433Z,-10981.13
2023-01-02T19:37:29.659Z,-10978.75
2023-01-02T19:40:36.072Z,-10974.94
2023-01-02T19:43:43.076Z,-10978.03
2023-01-02T19:46:50.504Z,-10980.00
2023-01-02T19:49:57.236Z,-10984.75
2023-01-02T19:53:03.743Z,-10981.53
2023-01-02T19:56:10.279Z,-10979.56
2023-01-02T19:59:16.494Z,-10976.34
2023-01-02T20:02:25.194Z,-10973.81
2023-01-02T20:05:31.599Z,-10956.87
2023-01-02T20:08:38.316Z,-10958.56
2023-01-02T20:12:07.435Z,-10961.50
2023-01-02T20:15:17.570Z,-10955.19
2023-01-02T20:18:25.084Z,-10959.81
2023-01-02T20:21:31.412Z,-10970.47
2023-01-02T20:24:37.607Z,-10961.91
2023-01-02T20:27:43.737Z,-10966.13
2023-01-02T20:30:51.519Z,-10966.25
2023-01-02T20:33:59.446Z,-10966.81
2023-01-02T20:37:05.990Z,-10966.25
2023-01-02T20:40:13.284Z,-10973.28
2023-01-02T20:43:19.702Z,-10968.38
2023-01-02T20:46:26.225Z,-10966.13
2023-01-02T20:49:33.959Z,-10963.19
2023-01-02T20:52:40.325Z,-10967.94
2023-01-02T20:55:46.617Z,-10959.97
2023-01-02T20:58:52.958Z,-10959.25
2023-01-02T21:01:59.292Z,-10962.06
2023-01-02T21:05:07.449Z,-10960.38
2023-01-02T21:08:13.629Z,-10957.00
2023-01-02T21:11:19.957Z,-10960.78
2023-01-02T21:14:26.073Z,-10957.56
2023-01-02T21:17:32.023Z,-10953.38
2023-01-02T21:20:45.830Z,-10948.19
2023-01-02T21:23:53.291Z,-10952.81
2023-01-02T21:26:59.796Z,-10954.50
2023-01-02T21:30:06.736Z,-10950.16
2023-01-02T21:33:13.996Z,-10956.03
2023-01-02T21:36:21.809Z,-10949.44
2023-01-02T21:39:28.332Z,-10948.59
2023-01-02T21:42:40.793Z,-10938.38
2023-01-02T21:45:50.997Z,-10944.69
2023-01-02T21:48:57.607Z,-10939.78
2023-01-02T21:52:05.659Z,-10937.69
2023-01-02T21:55:17.572Z,-10937.41
2023-01-02T21:58:23.712Z,-10942.03
2023-01-02T22:01:29.993Z,-10939.63
2023-01-02T22:04:37.072Z,-10954.78
2023-01-02T22:07:44.741Z,-10951.25
2023-01-02T22:10:51.315Z,-10948.88
2023-01-02T22:13:58.074Z,-10951.25
2023-01-02T22:17:06.707Z,-10950.28
2023-01-02T22:20:13.260Z,-10935.16
2023-01-02T22:23:21.077Z,-10939.09
2023-01-02T22:26:27.361Z,-10932.91
2023-01-02T22:30:09.695Z,-10928.84
2023-01-02T22:33:01.779Z,-10930.81
2023-01-02T22:36:08.940Z,-10930.41
2023-01-02T22:39:32.355Z,-10940.34
2023-01-02T22:43:06.126Z,-10934.88
2023-01-02T22:46:18.934Z,-10938.94
2023-01-02T22:49:29.159Z,-10939.50
2023-01-02T22:52:36.350Z,-10944.41
2023-01-02T22:55:44.100Z,-10943.84
2023-01-02T22:58:51.405Z,-10944.25
2023-01-02T23:01:57.827Z,-10945.53
2023-01-02T23:05:03.921Z,-10945.81
2023-01-02T23:08:10.162Z,-10942.44
2023-01-02T23:11:18.652Z,-10939.78
2023-01-02T23:14:25.069Z,-10935.16
2023-01-02T23:17:49.424Z,-10926.47
2023-01-02T23:20:55.703Z,-10937.25
2023-01-02T23:24:02.762Z,-10933.47
2023-01-02T23:27:12.214Z,-10924.94
2023-01-02T23:30:19.063Z,-10934.88
2023-01-02T23:33:25.279Z,-10939.63
2023-01-02T23:36:31.852Z,-10933.75
2023-01-02T23:39:38.412Z,-10930.13
2023-01-02T23:42:46.216Z,-10924.78
2023-01-02T23:45:52.854Z,-10930.69
2023-01-02T23:48:59.845Z,-10919.34
2023-01-02T23:52:06.537Z,-10917.25
2023-01-02T23:55:12.875Z,-10923.81
2023-01-02T23:58:20.850Z,-10919.91
